createdAt,value
2023-05-30T00:01:32.878Z,100.00
2023-05-30T00:04:01.544Z,100.00
2023-05-30T00:06:29.585Z,100.00
2023-05-30T00:08:56.965Z,100.00
2023-05-30T00:11:24.841Z,100.00
2023-05-30T00:13:52.513Z,100.00
2023-05-30T00:16:21.398Z,100.00
2023-05-30T00:18:48.843Z,100.00
2023-05-30T00:21:19.006Z,100.00
2023-05-30T00:23:47.427Z,100.00
2023-05-30T00:26:14.715Z,100.00
2023-05-30T00:28:48.996Z,100.00
2023-05-30T00:31:16.395Z,100.00
2023-05-30T00:33:43.690Z,100.00
2023-05-30T00:36:11.186Z,100.00
2023-05-30T00:38:40.894Z,100.00
2023-05-30T00:41:08.647Z,100.00
2023-05-30T00:43:37.290Z,100.00
2023-05-30T00:46:07.462Z,100.00
2023-05-30T00:48:35.502Z,100.00
2023-05-30T00:51:11.985Z,100.00
2023-05-30T00:53:42.974Z,100.00
2023-05-30T00:56:12.188Z,100.00
2023-05-30T00:58:40.822Z,100.00
2023-05-30T01:01:09.094Z,100.00
2023-05-30T01:03:38.895Z,100.00
2023-05-30T01:06:08.214Z,100.00
2023-05-30T01:08:37.373Z,100.00
2023-05-30T01:11:44.374Z,100.00
2023-05-30T01:14:44.164Z,100.00
2023-05-30T01:17:32.461Z,100.00
2023-05-30T01:20:24.015Z,100.00
2023-05-30T01:24:07.580Z,100.00
2023-05-30T01:27:19.823Z,100.00
2023-05-30T01:29:48.484Z,100.00
2023-05-30T01:32:17.352Z,100.00
2023-05-30T01:34:44.696Z,100.00
2023-05-30T01:37:14.498Z,100.00
2023-05-30T01:39:42.473Z,100.00
2023-05-30T01:42:27.285Z,100.00
2023-05-30T01:45:19.414Z,100.00
2023-05-30T01:48:18.148Z,100.00
2023-05-30T01:50:51.113Z,100.00
2023-05-30T01:53:34.215Z,100.00
2023-05-30T01:56:03.097Z,100.00
2023-05-30T01:58:35.787Z,100.00
2023-05-30T02:01:05.794Z,100.00
2023-05-30T02:03:33.439Z,100.00
2023-05-30T02:06:01.951Z,100.00
2023-05-30T02:08:29.690Z,100.00
2023-05-30T02:10:57.365Z,100.00
2023-05-30T02:13:25.156Z,100.00
2023-05-30T02:15:52.500Z,100.00
2023-05-30T02:18:20.860Z,100.00
2023-05-30T02:20:49.974Z,100.00
2023-05-30T02:23:17.557Z,100.00
2023-05-30T02:25:44.895Z,100.00
2023-05-30T02:28:12.329Z,100.00
2023-05-30T02:30:41.444Z,100.00
2023-05-30T02:33:08.844Z,100.00
2023-05-30T02:35:36.476Z,100.00
2023-05-30T02:38:04.555Z,100.00
2023-05-30T02:40:35.538Z,100.00
2023-05-30T02:43:09.604Z,100.00
2023-05-30T02:45:44.578Z,100.00
2023-05-30T02:48:20.281Z,100.00
2023-05-30T02:50:47.743Z,100.00
2023-05-30T02:53:22.665Z,100.00
2023-05-30T02:55:50.145Z,100.00
2023-05-30T02:58:43.969Z,100.00
2023-05-30T03:01:36.485Z,100.00
2023-05-30T03:04:04.660Z,100.00
2023-05-30T03:06:41.662Z,100.00
2023-05-30T03:09:26.076Z,100.00
2023-05-30T03:11:53.406Z,100.00
2023-05-30T03:14:21.903Z,100.00
2023-05-30T03:16:49.615Z,100.00
2023-05-30T03:19:18.765Z,100.00
2023-05-30T03:21:46.925Z,100.00
2023-05-30T03:24:16.453Z,100.00
2023-05-30T03:26:45.850Z,100.00
2023-05-30T03:29:15.323Z,100.00
2023-05-30T03:31:44.781Z,100.00
2023-05-30T03:34:12.449Z,100.00
2023-05-30T03:36:41.571Z,100.00
2023-05-30T03:39:11.578Z,100.00
2023-05-30T03:41:40.530Z,100.00
2023-05-30T03:44:08.311Z,100.00
2023-05-30T03:46:36.296Z,100.00
2023-05-30T03:49:03.939Z,100.00
2023-05-30T03:51:32.933Z,100.00
2023-05-30T03:54:01.261Z,100.00
2023-05-30T03:56:28.557Z,100.00
2023-05-30T03:58:56.010Z,100.00
2023-05-30T04:01:23.369Z,100.00
2023-05-30T04:03:51.780Z,100.00
2023-05-30T04:06:19.621Z,100.00
2023-05-30T04:08:46.932Z,100.00
2023-05-30T04:11:16.338Z,100.00
2023-05-30T04:13:43.700Z,100.00
2023-05-30T04:16:11.413Z,100.00
2023-05-30T04:18:44.782Z,100.00
2023-05-30T04:21:15.929Z,100.00
2023-05-30T04:23:50.128Z,100.00
2023-05-30T04:26:18.737Z,100.00
2023-05-30T04:28:47.192Z,100.00
2023-05-30T04:33:49.258Z,100.00
2023-05-30T04:36:19.679Z,100.00
2023-05-30T04:38:50.467Z,100.00
2023-05-30T04:41:22.037Z,100.00
2023-05-30T04:43:55.568Z,100.00
2023-05-30T04:46:28.913Z,100.00
2023-05-30T04:49:01.795Z,100.00
2023-05-30T04:51:30.420Z,100.00
2023-05-30T04:54:00.204Z,100.00
2023-05-30T04:56:28.256Z,100.00
2023-05-30T04:58:55.669Z,100.00
2023-05-30T05:01:25.306Z,100.00
2023-05-30T05:03:53.667Z,100.00
2023-05-30T05:06:23.838Z,100.00
2023-05-30T05:08:51.297Z,100.00
2023-05-30T05:11:18.740Z,100.00
2023-05-30T05:13:47.341Z,100.00
2023-05-30T05:16:15.000Z,100.00
2023-05-30T05:18:43.813Z,100.00
2023-05-30T05:21:13.750Z,100.00
2023-05-30T05:23:41.196Z,100.00
2023-05-30T05:26:08.933Z,100.00
2023-05-30T05:28:36.920Z,100.00
2023-05-30T05:31:07.249Z,100.00
2023-05-30T05:33:35.363Z,100.00
2023-05-30T05:36:04.074Z,100.00
2023-05-30T05:38:32.476Z,100.00
2023-05-30T05:40:59.944Z,100.00
2023-05-30T05:43:27.442Z,100.00
2023-05-30T05:45:54.882Z,100.00
2023-05-30T05:48:22.386Z,100.00
2023-05-30T05:50:49.778Z,100.00
2023-05-30T05:53:17.136Z,100.00
2023-05-30T05:55:48.092Z,100.00
2023-05-30T05:58:15.726Z,100.00
2023-05-30T06:00:43.218Z,100.00
2023-05-30T06:03:10.578Z,100.00
2023-05-30T06:05:38.321Z,100.00
2023-05-30T06:08:06.021Z,100.00
2023-05-30T06:10:33.460Z,100.00
2023-05-30T06:13:00.990Z,100.00
2023-05-30T06:15:28.280Z,100.00
2023-05-30T06:17:55.687Z,100.00
2023-05-30T06:20:23.376Z,100.00
2023-05-30T06:22:50.746Z,100.00
2023-05-30T06:25:18.224Z,100.00
2023-05-30T06:27:45.628Z,100.00
2023-05-30T06:30:13.239Z,100.00
2023-05-30T06:32:40.831Z,100.00
2023-05-30T06:35:10.232Z,100.00
2023-05-30T06:37:37.675Z,100.00
2023-05-30T06:40:11.699Z,100.00
2023-05-30T06:42:39.004Z,100.00
2023-05-30T06:45:07.175Z,100.00
2023-05-30T06:47:34.538Z,100.00
2023-05-30T06:50:02.005Z,100.00
2023-05-30T06:52:29.827Z,100.00
2023-05-30T06:54:57.506Z,100.00
2023-05-30T06:57:26.653Z,100.00
2023-05-30T06:59:54.005Z,100.00
2023-05-30T07:02:21.715Z,100.00
2023-05-30T07:04:49.161Z,100.00
2023-05-30T07:07:16.641Z,100.00
2023-05-30T07:09:43.895Z,100.00
2023-05-30T07:12:11.500Z,100.00
2023-05-30T07:14:38.930Z,100.00
2023-05-30T07:17:07.953Z,100.00
2023-05-30T07:19:35.397Z,100.00
2023-05-30T07:22:06.430Z,100.00
2023-05-30T07:24:34.921Z,100.00
2023-05-30T07:27:02.800Z,99.68
2023-05-30T07:29:30.349Z,100.00
2023-05-30T07:31:57.778Z,100.00
2023-05-30T07:34:25.069Z,97.43
2023-05-30T07:36:52.654Z,94.85
2023-05-30T07:39:20.738Z,95.06
2023-05-30T07:41:48.085Z,95.74
2023-05-30T07:44:17.127Z,95.06
2023-05-30T07:46:44.624Z,94.17
2023-05-30T07:49:12.045Z,91.65
2023-05-30T07:51:39.488Z,89.32
2023-05-30T07:54:07.011Z,89.08
2023-05-30T07:56:34.881Z,90.68
2023-05-30T07:59:03.585Z,91.24
2023-05-30T08:01:31.826Z,91.40
2023-05-30T08:03:59.217Z,91.01
2023-05-30T08:06:27.414Z,91.30
2023-05-30T08:08:55.096Z,90.15
2023-05-30T08:11:22.388Z,88.50
2023-05-30T08:13:51.130Z,85.03
2023-05-30T08:16:19.072Z,81.90
2023-05-30T08:18:47.198Z,76.38
2023-05-30T08:21:14.661Z,78.72
2023-05-30T08:23:47.143Z,74.87
2023-05-30T08:26:14.740Z,72.90
2023-05-30T08:28:42.101Z,71.15
2023-05-30T08:31:09.928Z,70.09
2023-05-30T08:33:38.109Z,68.49
2023-05-30T08:36:05.657Z,66.97
2023-05-30T08:38:32.990Z,62.13
2023-05-30T08:41:00.715Z,62.69
2023-05-30T08:43:28.569Z,63.00
2023-05-30T08:45:57.289Z,63.20
2023-05-30T08:48:28.700Z,62.97
2023-05-30T08:50:56.271Z,62.04
2023-05-30T08:53:36.928Z,62.94
2023-05-30T08:56:22.537Z,62.91
2023-05-30T08:58:52.488Z,62.43
2023-05-30T09:01:21.065Z,61.09
2023-05-30T09:03:50.737Z,61.32
2023-05-30T09:06:19.138Z,61.12
2023-05-30T09:08:49.376Z,59.44
2023-05-30T09:11:17.839Z,56.88
2023-05-30T09:13:46.583Z,55.37
2023-05-30T09:16:14.648Z,55.33
2023-05-30T09:18:42.037Z,55.10
2023-05-30T09:21:10.283Z,56.05
2023-05-30T09:23:42.342Z,57.72
2023-05-30T09:26:14.662Z,56.85
2023-05-30T09:28:49.775Z,56.45
2023-05-30T09:31:18.182Z,54.52
2023-05-30T09:33:53.252Z,53.63
2023-05-30T09:36:26.012Z,55.82
2023-05-30T09:39:05.251Z,55.22
2023-05-30T09:41:35.022Z,54.61
2023-05-30T09:44:07.208Z,54.82
2023-05-30T09:46:36.570Z,52.00
2023-05-30T09:49:14.577Z,53.90
2023-05-30T09:51:43.009Z,51.28
2023-05-30T09:54:10.923Z,50.21
2023-05-30T09:56:42.004Z,51.40
2023-05-30T09:59:15.654Z,52.92
2023-05-30T10:01:47.482Z,51.22
2023-05-30T10:04:20.735Z,50.74
2023-05-30T10:06:52.688Z,50.63
2023-05-30T10:09:25.603Z,50.46
2023-05-30T10:11:55.143Z,49.33
2023-05-30T10:14:22.670Z,49.83
2023-05-30T10:17:04.950Z,49.17
2023-05-30T10:19:56.640Z,48.56
2023-05-30T10:22:30.196Z,49.36
2023-05-30T10:25:02.828Z,49.74
2023-05-30T10:27:47.406Z,48.73
2023-05-30T10:30:24.670Z,46.91
2023-05-30T10:33:14.833Z,48.25
2023-05-30T10:35:43.890Z,46.46
2023-05-30T10:38:14.144Z,46.28
2023-05-30T10:41:05.154Z,44.79
2023-05-30T10:44:04.539Z,45.32
2023-05-30T10:47:03.413Z,46.46
2023-05-30T10:49:33.170Z,45.49
2023-05-30T10:52:11.670Z,45.38
2023-05-30T10:54:44.191Z,45.37
2023-05-30T10:57:27.043Z,46.45
2023-05-30T11:00:11.105Z,44.36
2023-05-30T11:02:40.512Z,43.81
2023-05-30T11:05:11.311Z,44.26
2023-05-30T11:07:42.687Z,44.39
2023-05-30T11:10:12.970Z,45.28
2023-05-30T11:12:49.336Z,42.82
2023-05-30T11:15:33.461Z,44.32
2023-05-30T11:18:01.194Z,44.99
2023-05-30T11:20:28.699Z,43.82
2023-05-30T11:23:05.264Z,42.16
2023-05-30T11:25:34.549Z,42.79
2023-05-30T11:28:05.194Z,42.59
2023-05-30T11:30:34.693Z,44.00
2023-05-30T11:33:02.644Z,45.09
2023-05-30T11:35:32.841Z,44.25
2023-05-30T11:38:02.604Z,44.80
2023-05-30T11:40:30.231Z,47.29
2023-05-30T11:42:59.139Z,46.42
2023-05-30T11:45:33.643Z,46.05
2023-05-30T11:48:10.038Z,46.73
2023-05-30T11:50:43.382Z,47.48
2023-05-30T11:53:15.895Z,48.96
2023-05-30T11:55:51.815Z,50.00
2023-05-30T11:58:20.723Z,48.69
2023-05-30T12:00:48.806Z,48.56
2023-05-30T12:03:18.265Z,48.28
2023-05-30T12:05:49.544Z,46.27
2023-05-30T12:08:18.401Z,45.62
2023-05-30T12:10:46.694Z,45.72
2023-05-30T12:13:14.295Z,46.03
2023-05-30T12:15:42.727Z,47.42
2023-05-30T12:18:11.462Z,46.95
2023-05-30T12:20:46.951Z,47.47
2023-05-30T12:23:15.936Z,45.34
2023-05-30T12:25:57.287Z,46.57
2023-05-30T12:28:25.155Z,47.05
2023-05-30T12:30:53.837Z,47.51
2023-05-30T12:33:23.302Z,48.26
2023-05-30T12:35:56.926Z,48.52
2023-05-30T12:38:26.151Z,46.98
2023-05-30T12:40:53.563Z,47.18
2023-05-30T12:43:29.834Z,46.73
2023-05-30T12:46:07.185Z,45.13
2023-05-30T12:48:36.385Z,45.93
2023-05-30T12:51:05.459Z,45.95
2023-05-30T12:53:32.807Z,45.88
2023-05-30T12:56:00.141Z,45.75
2023-05-30T12:58:27.522Z,44.59
2023-05-30T13:00:55.170Z,45.04
2023-05-30T13:03:22.856Z,42.88
2023-05-30T13:05:52.310Z,42.88
2023-05-30T13:08:19.954Z,42.56
2023-05-30T13:10:47.497Z,42.11
2023-05-30T13:13:15.169Z,41.69
2023-05-30T13:15:42.455Z,41.84
2023-05-30T13:18:09.798Z,41.36
2023-05-30T13:20:37.166Z,41.13
2023-05-30T13:23:05.760Z,40.74
2023-05-30T13:25:33.378Z,40.05
2023-05-30T13:28:00.970Z,39.08
2023-05-30T13:30:32.019Z,39.41
2023-05-30T13:32:59.932Z,38.12
2023-05-30T13:35:27.391Z,38.62
2023-05-30T13:37:54.857Z,38.78
2023-05-30T13:40:23.224Z,38.31
2023-05-30T13:42:50.645Z,37.49
2023-05-30T13:45:19.831Z,36.61
2023-05-30T13:47:47.446Z,37.06
2023-05-30T13:50:15.484Z,36.23
2023-05-30T13:52:43.017Z,36.42
2023-05-30T13:55:10.664Z,37.22
2023-05-30T13:57:40.620Z,37.34
2023-05-30T14:00:09.959Z,37.29
2023-05-30T14:02:37.648Z,37.62
2023-05-30T14:05:06.192Z,36.25
2023-05-30T14:07:33.584Z,34.91
2023-05-30T14:10:01.057Z,34.71
2023-05-30T14:12:28.942Z,34.77
2023-05-30T14:15:01.910Z,34.45
2023-05-30T14:17:29.291Z,35.06
2023-05-30T14:19:56.690Z,34.52
2023-05-30T14:22:23.986Z,35.61
2023-05-30T14:24:52.066Z,34.89
2023-05-30T14:27:19.413Z,34.75
2023-05-30T14:29:47.290Z,35.20
2023-05-30T14:32:14.713Z,35.22
2023-05-30T14:34:42.718Z,35.28
2023-05-30T14:37:10.593Z,34.98
2023-05-30T14:39:40.057Z,34.59
2023-05-30T14:42:16.174Z,35.58
2023-05-30T14:44:45.607Z,34.67
2023-05-30T14:47:13.286Z,35.29
2023-05-30T14:49:41.000Z,34.29
2023-05-30T14:52:11.044Z,35.36
2023-05-30T14:54:39.394Z,35.63
2023-05-30T14:57:08.101Z,36.56
2023-05-30T14:59:37.813Z,36.56
2023-05-30T15:02:12.551Z,36.24
2023-05-30T15:04:40.497Z,37.37
2023-05-30T15:07:08.988Z,38.46
2023-05-30T15:09:39.306Z,39.22
2023-05-30T15:12:11.128Z,39.94
2023-05-30T15:14:38.705Z,40.32
2023-05-30T15:17:06.418Z,39.94
2023-05-30T15:19:33.748Z,40.35
2023-05-30T15:22:14.486Z,40.97
2023-05-30T15:24:43.021Z,40.12
2023-05-30T15:27:10.364Z,40.78
2023-05-30T15:29:38.508Z,41.31
2023-05-30T15:32:09.873Z,42.18
2023-05-30T15:34:39.821Z,42.09
2023-05-30T15:37:07.695Z,42.87
2023-05-30T15:39:38.619Z,42.91
2023-05-30T15:42:11.582Z,43.65
2023-05-30T15:44:40.175Z,45.65
2023-05-30T15:47:11.463Z,47.03
2023-05-30T15:49:40.440Z,47.87
2023-05-30T15:52:09.989Z,48.50
2023-05-30T15:54:39.350Z,50.07
2023-05-30T15:57:07.937Z,51.45
2023-05-30T15:59:37.261Z,53.76
2023-05-30T16:02:06.236Z,54.18
2023-05-30T16:04:36.504Z,56.97
2023-05-30T16:07:06.431Z,58.45
2023-05-30T16:09:35.633Z,59.38
2023-05-30T16:12:04.536Z,60.41
2023-05-30T16:14:34.375Z,60.23
2023-05-30T16:17:02.241Z,60.95
2023-05-30T16:19:32.161Z,63.05
2023-05-30T16:22:02.334Z,62.97
2023-05-30T16:24:31.182Z,63.50
2023-05-30T16:27:00.054Z,65.85
2023-05-30T16:29:28.551Z,66.68
2023-05-30T16:31:56.791Z,65.96
2023-05-30T16:34:27.648Z,66.65
2023-05-30T16:36:56.047Z,67.51
2023-05-30T16:39:26.648Z,67.92
2023-05-30T16:41:54.890Z,68.45
2023-05-30T16:44:23.237Z,69.36
2023-05-30T16:46:53.913Z,70.45
2023-05-30T16:49:24.192Z,70.24
2023-05-30T16:51:53.654Z,70.67
2023-05-30T16:54:22.118Z,71.11
2023-05-30T16:56:49.772Z,71.25
2023-05-30T16:59:19.311Z,70.99
2023-05-30T17:01:54.910Z,72.15
2023-05-30T17:04:24.291Z,71.69
2023-05-30T17:06:52.237Z,72.39
2023-05-30T17:09:21.771Z,73.13
2023-05-30T17:11:49.355Z,73.41
2023-05-30T17:14:23.464Z,73.05
2023-05-30T17:16:52.076Z,73.13
2023-05-30T17:19:29.084Z,74.21
2023-05-30T17:21:58.409Z,74.52
2023-05-30T17:24:34.225Z,74.59
2023-05-30T17:27:05.833Z,74.65
2023-05-30T17:29:40.809Z,75.80
2023-05-30T17:32:09.664Z,75.28
2023-05-30T17:34:37.981Z,75.42
2023-05-30T17:37:11.021Z,76.11
2023-05-30T17:39:41.987Z,76.31
2023-05-30T17:42:09.998Z,77.99
2023-05-30T17:44:47.711Z,78.11
2023-05-30T17:47:16.158Z,77.81
2023-05-30T17:49:46.237Z,78.42
2023-05-30T17:52:15.253Z,78.73
2023-05-30T17:54:43.873Z,79.85
2023-05-30T17:57:12.395Z,80.01
2023-05-30T17:59:41.931Z,81.20
2023-05-30T18:02:10.428Z,79.80
2023-05-30T18:04:39.582Z,78.91
2023-05-30T18:07:09.300Z,78.22
2023-05-30T18:09:36.817Z,78.02
2023-05-30T18:12:10.613Z,77.74
2023-05-30T18:14:38.428Z,78.85
2023-05-30T18:17:09.169Z,78.17
2023-05-30T18:19:36.821Z,78.55
2023-05-30T18:22:07.402Z,78.93
2023-05-30T18:24:34.740Z,78.93
2023-05-30T18:27:05.615Z,79.93
2023-05-30T18:29:36.417Z,80.02
2023-05-30T18:32:06.485Z,81.11
2023-05-30T18:34:36.293Z,82.24
2023-05-30T18:37:04.906Z,82.43
2023-05-30T18:39:33.608Z,83.11
2023-05-30T18:42:01.195Z,83.85
2023-05-30T18:44:28.965Z,83.99
2023-05-30T18:46:56.805Z,85.46
2023-05-30T18:49:24.577Z,85.41
2023-05-30T18:51:54.458Z,85.29
2023-05-30T18:54:22.364Z,86.24
2023-05-30T18:56:50.758Z,87.34
2023-05-30T18:59:19.665Z,86.88
2023-05-30T19:01:47.110Z,87.92
2023-05-30T19:04:14.798Z,88.98
2023-05-30T19:06:42.668Z,89.14
2023-05-30T19:09:13.359Z,89.05
2023-05-30T19:11:40.763Z,88.92
2023-05-30T19:14:08.126Z,89.43
2023-05-30T19:16:35.701Z,89.46
2023-05-30T19:19:06.242Z,90.47
2023-05-30T19:21:34.211Z,90.07
2023-05-30T19:24:01.814Z,90.84
2023-05-30T19:26:29.703Z,90.52
2023-05-30T19:28:58.348Z,91.45
2023-05-30T19:31:25.896Z,91.38
2023-05-30T19:33:53.253Z,91.73
2023-05-30T19:36:20.541Z,92.61
2023-05-30T19:38:49.266Z,92.92
2023-05-30T19:41:16.806Z,93.32
2023-05-30T19:43:44.126Z,93.96
2023-05-30T19:46:12.298Z,95.01
2023-05-30T19:48:40.072Z,96.21
2023-05-30T19:51:07.501Z,96.15
2023-05-30T19:53:34.807Z,96.60
2023-05-30T19:56:02.167Z,96.95
2023-05-30T19:58:29.495Z,97.49
2023-05-30T20:00:56.956Z,98.38
2023-05-30T20:03:24.874Z,97.42
2023-05-30T20:05:52.248Z,97.59
2023-05-30T20:08:19.538Z,98.48
2023-05-30T20:10:46.958Z,98.24
2023-05-30T20:13:14.522Z,98.16
2023-05-30T20:15:41.889Z,98.86
2023-05-30T20:18:09.488Z,99.71
2023-05-30T20:20:38.037Z,100.00
2023-05-30T20:23:05.565Z,100.00
2023-05-30T20:25:32.835Z,99.73
2023-05-30T20:28:02.887Z,100.00
2023-05-30T20:30:31.808Z,100.00
2023-05-30T20:33:02.602Z,100.00
2023-05-30T20:35:30.439Z,100.00
2023-05-30T20:37:57.760Z,100.00
2023-05-30T20:40:25.130Z,100.00
2023-05-30T20:42:52.467Z,100.00
2023-05-30T20:45:20.038Z,100.00
2023-05-30T20:47:47.568Z,100.00
2023-05-30T20:50:15.551Z,100.00
2023-05-30T20:52:42.970Z,100.00
2023-05-30T20:55:11.461Z,100.00
2023-05-30T20:57:38.773Z,100.00
2023-05-30T21:02:51.666Z,100.00
2023-05-30T21:05:19.395Z,100.00
2023-05-30T21:07:47.037Z,100.00
2023-05-30T21:10:14.835Z,100.00
2023-05-30T21:12:42.263Z,100.00
2023-05-30T21:15:10.114Z,100.00
2023-05-30T21:17:37.643Z,100.00
2023-05-30T21:20:05.712Z,100.00
2023-05-30T21:22:33.107Z,100.00
2023-05-30T21:25:00.382Z,100.00
2023-05-30T21:27:27.708Z,100.00
2023-05-30T21:29:55.044Z,100.00
2023-05-30T21:32:22.532Z,100.00
2023-05-30T21:34:50.036Z,100.00
2023-05-30T21:37:18.969Z,100.00
2023-05-30T21:39:46.394Z,100.00
2023-05-30T21:42:13.662Z,100.00
2023-05-30T21:44:41.135Z,100.00
2023-05-30T21:47:08.742Z,100.00
2023-05-30T21:49:36.027Z,100.00
2023-05-30T21:52:04.594Z,100.00
2023-05-30T21:54:42.272Z,100.00
2023-05-30T21:57:10.306Z,100.00
2023-05-30T21:59:41.408Z,100.00
2023-05-30T22:02:09.749Z,100.00
2023-05-30T22:04:37.236Z,100.00
2023-05-30T22:07:08.367Z,100.00
2023-05-30T22:09:36.739Z,100.00
2023-05-30T22:12:07.156Z,100.00
2023-05-30T22:14:34.750Z,100.00
2023-05-30T22:17:02.097Z,100.00
2023-05-30T22:19:29.340Z,100.00
2023-05-30T22:22:03.579Z,100.00
2023-05-30T22:24:37.114Z,100.00
2023-05-30T22:27:05.970Z,100.00
2023-05-30T22:29:33.522Z,100.00
2023-05-30T22:32:00.847Z,100.00
2023-05-30T22:34:28.212Z,100.00
2023-05-30T22:36:55.540Z,100.00
2023-05-30T22:39:23.004Z,100.00
2023-05-30T22:41:50.430Z,100.00
2023-05-30T22:44:17.863Z,100.00
2023-05-30T22:46:45.898Z,100.00
2023-05-30T22:49:13.317Z,100.00
2023-05-30T22:51:41.718Z,100.00
2023-05-30T22:54:09.207Z,100.00
2023-05-30T22:56:36.480Z,100.00
2023-05-30T22:59:04.070Z,100.00
2023-05-30T23:01:31.497Z,100.00
2023-05-30T23:03:58.829Z,100.00
2023-05-30T23:06:26.167Z,100.00
2023-05-30T23:08:53.463Z,100.00
2023-05-30T23:11:21.525Z,100.00
2023-05-30T23:13:48.928Z,100.00
2023-05-30T23:16:16.447Z,100.00
2023-05-30T23:18:43.790Z,100.00
2023-05-30T23:21:11.423Z,100.00
2023-05-30T23:23:39.038Z,100.00
2023-05-30T23:26:06.424Z,100.00
2023-05-30T23:28:34.930Z,100.00
2023-05-30T23:31:02.474Z,100.00
2023-05-30T23:33:29.948Z,100.00
2023-05-30T23:35:57.335Z,100.00
2023-05-30T23:38:24.763Z,100.00
2023-05-30T23:40:52.093Z,100.00
2023-05-30T23:43:19.399Z,100.00
2023-05-30T23:45:46.698Z,100.00
2023-05-30T23:48:14.025Z,100.00
2023-05-30T23:50:41.727Z,100.00
2023-05-30T23:53:09.042Z,100.00
2023-05-30T23:55:36.295Z,100.00
2023-05-30T23:58:03.559Z,100.00
